Aérodrome :
LOGIN :

S'inscrire | Disclaimer

   EN    FR    IT 

 










Légende :    VFR   VFR Marginal   IFR   IFR Intensif   IFR Très Intensif
Visi : 
Plafond : 
>= 8 km
>= 3000ft
5 à 8 km
1000 à 3000 ft
1500m à 5 km
500 à 1000 ft
800 à 1500m
200 à 500 ft
< 800m
< 200 ft
Symboles :   Orages  Brouillard  Fortes neiges  Fortes précipitations  Vent > 20 kt
SIGMETs :   Divers  Orages  Givrage  Turbulence  Onde Orograph.  Cendres Volcan.






- Altitude de l'aérodrome : 659 ft
- Code IATA : LYN


LFLY - Lyon Bron

DERNIER METAR :
  • 200800Z AUTO 18017KT 140V200 CAVOK 26/09 Q1022 TEMPO FEW100TCU BECMG 18025G35KT

METARs EXPIRÉS :
  • 200730Z AUTO 17019G30KT 130V200 CAVOK 25/09 Q1022 TEMPO FEW100TCU
  • 200700Z AUTO 17013KT 130V210 CAVOK 25/09 Q1023 TEMPO FEW100TCU BECMG 18025G35KT
  • 200630Z AUTO 17013KT 140V200 CAVOK 24/09 Q1023 TEMPO FEW100TCU BECMG 18025G35KT
  • 200600Z AUTO 18016KT CAVOK 23/09 Q1023 TEMPO FEW100TCU BECMG 16015G25KT
  • 200530Z AUTO 17014KT 140V200 CAVOK 23/09 Q1022 TEMPO FEW100TCU BECMG 16015G25KT

TAF TAF LFLY
Valide du 20 à 06h jusqu'au 21 à 06h UTC


200500Z 2006/2106 16015G25KT CAVOK
TEMPO 2006/2009 FEW100TCU
BECMG 2008/2010 18025G35KT
TEMPO 2010/2016 19030G45KT
PROB40
TEMPO 2015/2104 FEW070TCU
BECMG 2019/2021 18015G25KT
BECMG 2022/2024 20005KT
PROB40
TEMPO 2100/2104 BKN050
BECMG 2100/2102 VRB02KT
ATIS : +33 4 72 15 87 96



MET'MAP, la Météo Aéronautique d'un coup d'oeil ! - Copyright ORBIFLY Décembre 2007 - Disclaimer

ORBIFLY MET'MAP TEAM :

Programmation & Développement : Alexandra Zaïnal
Sur une idée originale de : Baudouin d'Aumeries
Soutien technique & logistique : Manuel Goepfert
Assistance : Marc-Olivier Méhu

Contact : metmap@orbifly.com




SOURCES & CREDITS :

   NOAA